Time;durP1;ratioP1;P1;durP2;ratioP2;P2;SDS_P1;SDS_P2;PMS_P1;PMS_P2;Temp;Humidity;BMP_temperature;BMP_pressure;BME280_temperature;BME280_humidity;BME280_pressure;Samples;Min_cycle;Max_cycle;Signal;HPM_P1;HPM_P2
2021/11/08 00:02:19;;;;;;;16.37;3.80;;;9.40;99.90;;;;;;5062582;28;20198;-59
2021/11/08 00:04:46;;;;;;;16.90;3.33;;;9.40;99.90;;;;;;5050809;28;20214;-60
2021/11/08 00:07:12;;;;;;;25.60;3.90;;;9.40;99.90;;;;;;5063021;28;20218;-59
2021/11/08 00:09:41;;;;;;;22.80;4.03;;;9.40;99.90;;;;;;5060745;28;20191;-61
2021/11/08 00:12:10;;;;;;;18.87;3.63;;;9.40;99.90;;;;;;5063653;28;20195;-60
2021/11/08 00:14:37;;;;;;;18.30;3.37;;;9.40;99.90;;;;;;5060316;28;20219;-59
2021/11/08 00:17:10;;;;;;;21.30;3.73;;;9.40;99.90;;;;;;5053757;28;20206;-60
2021/11/08 00:19:53;;;;;;;20.20;4.30;;;9.40;99.90;;;;;;5046563;28;20281;-60
2021/11/08 00:22:21;;;;;;;21.30;3.23;;;9.40;99.90;;;;;;5054478;28;20201;-60
2021/11/08 00:24:48;;;;;;;13.13;2.83;;;9.40;99.90;;;;;;5063405;28;20313;-61
2021/11/08 00:27:16;;;;;;;28.97;4.10;;;9.40;99.90;;;;;;5059631;28;20218;-60
2021/11/08 00:29:42;;;;;;;14.43;3.47;;;9.40;99.90;;;;;;5063991;28;20207;-60
2021/11/08 00:32:09;;;;;;;15.87;3.67;;;9.40;99.90;;;;;;5059880;28;20199;-60
2021/11/08 00:34:38;;;;;;;16.73;3.23;;;9.40;99.90;;;;;;5063284;28;20226;-61
2021/11/08 00:37:05;;;;;;;12.27;3.17;;;9.40;99.90;;;;;;5046187;28;20195;-60
2021/11/08 00:39:31;;;;;;;20.67;3.30;;;9.40;99.90;;;;;;5062362;28;20395;-60
2021/11/08 00:41:58;;;;;;;19.80;3.27;;;9.40;99.90;;;;;;5062132;28;20206;-61
2021/11/08 00:44:25;;;;;;;15.13;3.97;;;9.40;99.90;;;;;;5060939;28;20186;-60
2021/11/08 00:46:52;;;;;;;24.10;2.87;;;9.40;99.90;;;;;;5063468;28;20206;-60
2021/11/08 00:49:19;;;;;;;22.93;3.33;;;9.30;99.90;;;;;;5059789;28;20218;-60
2021/11/08 00:51:47;;;;;;;14.10;2.70;;;9.30;99.90;;;;;;5048616;28;20686;-61
2021/11/08 00:54:15;;;;;;;22.53;3.33;;;9.30;99.90;;;;;;5058783;28;20881;-60
2021/11/08 00:56:44;;;;;;;18.87;3.40;;;9.30;99.90;;;;;;5063497;28;20248;-60
2021/11/08 00:59:13;;;;;;;12.10;2.80;;;9.30;99.90;;;;;;5059910;28;20655;-60
2021/11/08 01:01:40;;;;;;;15.90;3.17;;;9.30;99.90;;;;;;5061788;28;20281;-60
2021/11/08 01:04:08;;;;;;;13.90;2.40;;;9.30;99.90;;;;;;5060363;28;20273;-60
2021/11/08 01:06:34;;;;;;;17.97;2.60;;;9.20;99.90;;;;;;5062480;28;20238;-60
2021/11/08 01:09:04;;;;;;;21.80;2.53;;;9.30;99.90;;;;;;5045717;28;20230;-60
2021/11/08 01:11:31;;;;;;;12.83;2.57;;;9.30;99.90;;;;;;5060736;28;20195;-60
2021/11/08 01:13:57;;;;;;;14.60;2.23;;;9.30;99.90;;;;;;5062072;28;20206;-60
2021/11/08 01:16:25;;;;;;;9.43;2.73;;;9.20;99.90;;;;;;5059056;28;20211;-61
2021/11/08 01:18:54;;;;;;;12.53;2.53;;;9.30;99.90;;;;;;5063033;28;20248;-61
2021/11/08 01:21:21;;;;;;;13.03;2.77;;;9.30;99.90;;;;;;5059616;28;20198;-60
2021/11/08 01:23:49;;;;;;;12.83;3.03;;;9.20;99.90;;;;;;5048422;28;20661;-59
2021/11/08 01:26:18;;;;;;;10.40;2.07;;;9.20;99.90;;;;;;5053893;28;20210;-61
2021/11/08 01:28:46;;;;;;;12.23;2.20;;;9.20;99.90;;;;;;5062901;28;20214;-59
2021/11/08 01:31:14;;;;;;;10.80;2.60;;;9.10;99.90;;;;;;5058948;28;20946;-59
2021/11/08 01:33:42;;;;;;;14.33;2.57;;;9.10;99.90;;;;;;5062209;28;20202;-60
2021/11/08 01:36:12;;;;;;;13.80;2.40;;;9.10;99.90;;;;;;5059407;28;20264;-60
2021/11/08 01:38:42;;;;;;;12.03;3.17;;;9.10;99.90;;;;;;5048413;28;20229;-61
2021/11/08 01:41:10;;;;;;;11.90;1.87;;;9.00;99.90;;;;;;5059388;28;20839;-61
2021/11/08 01:43:38;;;;;;;7.27;2.37;;;9.00;99.90;;;;;;5062605;28;20206;-61
2021/11/08 01:46:05;;;;;;;12.77;2.13;;;9.00;99.90;;;;;;5059727;28;20231;-60
2021/11/08 01:48:33;;;;;;;16.77;2.43;;;9.00;99.90;;;;;;5061522;28;20220;-61
2021/11/08 01:51:00;;;;;;;11.57;2.10;;;9.00;99.90;;;;;;5061468;28;20205;-60
2021/11/08 01:53:28;;;;;;;20.83;2.67;;;9.10;99.90;;;;;;5046203;28;20217;-60
2021/11/08 01:55:56;;;;;;;8.53;1.73;;;9.00;99.90;;;;;;5062068;28;20226;-60
2021/11/08 01:58:25;;;;;;;12.50;2.47;;;9.10;99.90;;;;;;5059795;28;20191;-60
2021/11/08 02:00:56;;;;;;;9.43;2.00;;;9.10;99.90;;;;;;5062370;28;20206;-60
2021/11/08 02:03:23;;;;;;;16.70;2.80;;;9.10;99.90;;;;;;5057966;28;20210;-60
2021/11/08 02:05:50;;;;;;;11.17;1.73;;;9.10;99.90;;;;;;5062793;28;20223;-60
2021/11/08 02:08:18;;;;;;;9.93;2.73;;;9.10;99.90;;;;;;5058430;28;20218;-60
2021/11/08 02:10:46;;;;;;;14.60;2.07;;;9.10;99.90;;;;;;5048327;28;20752;-60
2021/11/08 02:13:13;;;;;;;15.37;2.57;;;9.10;99.90;;;;;;5057787;28;20909;-60
2021/11/08 02:15:40;;;;;;;9.63;1.90;;;9.10;99.90;;;;;;5062744;28;20698;-60
2021/11/08 02:18:09;;;;;;;13.13;1.80;;;9.10;99.90;;;;;;5059118;28;20553;-60
2021/11/08 02:20:41;;;;;;;10.63;2.37;;;9.10;99.90;;;;;;5062584;28;20233;-60
2021/11/08 02:23:08;;;;;;;9.43;2.67;;;9.10;99.90;;;;;;5060752;28;20209;-59
2021/11/08 02:25:37;;;;;;;13.20;3.73;;;9.10;99.90;;;;;;5051362;28;20233;-60
2021/11/08 02:28:05;;;;;;;17.40;2.87;;;9.10;99.90;;;;;;5053923;28;20301;-60
2021/11/08 02:30:35;;;;;;;12.77;2.93;;;9.10;99.90;;;;;;5062056;28;20258;-60
2021/11/08 02:33:02;;;;;;;8.70;2.90;;;9.10;99.90;;;;;;5061913;28;20202;-60
2021/11/08 02:35:29;;;;;;;13.13;2.97;;;9.10;99.90;;;;;;5062557;28;20206;-60
2021/11/08 02:37:57;;;;;;;15.17;4.13;;;9.10;99.90;;;;;;5064253;28;20659;-60
2021/11/08 02:40:27;;;;;;;11.67;3.60;;;9.10;99.90;;;;;;5057032;28;20286;-60
2021/11/08 02:42:58;;;;;;;11.57;3.17;;;9.10;99.90;;;;;;5058985;28;20194;-60
2021/11/08 02:45:28;;;;;;;5.90;2.43;;;9.10;99.90;;;;;;5063848;28;20215;-60
2021/11/08 02:47:55;;;;;;;17.63;3.50;;;9.10;99.90;;;;;;5063952;28;20206;-60
2021/11/08 02:50:25;;;;;;;11.53;2.87;;;9.10;99.90;;;;;;5064518;28;20560;-59
2021/11/08 02:52:54;;;;;;;11.03;2.57;;;9.00;99.90;;;;;;5063593;28;20191;-60
2021/11/08 02:55:25;;;;;;;13.80;2.37;;;9.00;99.90;;;;;;5060838;28;20268;-60
2021/11/08 02:57:55;;;;;;;12.00;2.13;;;9.00;99.90;;;;;;5059198;28;21032;-60
2021/11/08 03:00:24;;;;;;;9.97;3.10;;;9.00;99.90;;;;;;5058088;28;20203;-59
2021/11/08 03:02:51;;;;;;;10.70;2.60;;;9.00;99.90;;;;;;5062825;28;20186;-60
2021/11/08 03:05:27;;;;;;;9.53;2.20;;;8.90;99.90;;;;;;5064904;28;20562;-60
2021/11/08 03:07:54;;;;;;;13.03;2.23;;;8.90;99.90;;;;;;5064061;28;20224;-60
2021/11/08 03:10:24;;;;;;;9.00;2.27;;;8.90;99.90;;;;;;5064607;28;20210;-60
2021/11/08 03:12:53;;;;;;;12.17;1.87;;;8.90;99.90;;;;;;5048698;28;20867;-60
2021/11/08 03:15:31;;;;;;;9.60;2.30;;;8.90;99.90;;;;;;5064019;28;20219;-60
2021/11/08 03:18:04;;;;;;;9.77;3.20;;;9.00;99.90;;;;;;5063939;28;20199;-60
2021/11/08 03:20:31;;;;;;;13.33;1.70;;;9.00;99.90;;;;;;5062089;28;20570;-60
2021/11/08 03:23:02;;;;;;;12.67;1.97;;;8.90;99.90;;;;;;5064364;28;20194;-60
2021/11/08 03:25:38;;;;;;;5.10;1.40;;;9.00;99.90;;;;;;5061446;28;20226;-60
2021/11/08 03:28:08;;;;;;;6.53;1.83;;;9.00;99.90;;;;;;5051290;28;20260;-60
2021/11/08 03:30:38;;;;;;;10.70;2.03;;;9.00;99.90;;;;;;5056481;28;20275;-60
2021/11/08 03:33:10;;;;;;;10.60;2.30;;;9.00;99.90;;;;;;5063089;28;20221;-60
2021/11/08 03:35:37;;;;;;;9.80;2.17;;;9.00;99.90;;;;;;5060587;28;20401;-61
2021/11/08 03:38:07;;;;;;;7.70;1.83;;;9.10;99.90;;;;;;5064974;28;20215;-60
2021/11/08 03:40:38;;;;;;;6.97;1.50;;;9.10;99.90;;;;;;5055011;28;20202;-60
2021/11/08 03:43:10;;;;;;;6.97;2.13;;;9.10;99.90;;;;;;5064350;28;20195;-61
2021/11/08 03:45:37;;;;;;;9.00;2.07;;;9.10;99.90;;;;;;5041747;28;20215;-60
2021/11/08 03:48:08;;;;;;;8.17;1.67;;;9.10;99.90;;;;;;5062718;28;20210;-60
2021/11/08 03:50:35;;;;;;;11.90;1.80;;;9.10;99.90;;;;;;5063353;28;20206;-60
2021/11/08 03:53:03;;;;;;;7.93;2.23;;;9.10;99.90;;;;;;5064182;28;20203;-60
2021/11/08 03:55:30;;;;;;;5.70;2.13;;;9.10;99.90;;;;;;5061468;28;20226;-60
2021/11/08 03:57:58;;;;;;;9.87;1.87;;;9.00;99.90;;;;;;5063522;28;20648;-60
2021/11/08 04:00:27;;;;;;;6.23;2.40;;;9.00;99.90;;;;;;5048244;28;20217;-60
2021/11/08 04:02:56;;;;;;;10.73;1.70;;;9.00;99.90;;;;;;5062153;28;20538;-60
2021/11/08 04:05:26;;;;;;;7.33;2.93;;;9.00;99.90;;;;;;5061228;28;20598;-60
2021/11/08 04:07:53;;;;;;;4.07;1.83;;;9.00;99.90;;;;;;5062409;28;20191;-60
2021/11/08 04:10:21;;;;;;;4.03;2.30;;;8.90;99.90;;;;;;5063529;28;20206;-60
2021/11/08 04:12:49;;;;;;;5.53;1.90;;;8.90;99.90;;;;;;5061455;28;20194;-60
2021/11/08 04:15:19;;;;;;;5.37;2.00;;;8.90;99.90;;;;;;5049873;28;20231;-60
2021/11/08 04:17:47;;;;;;;6.17;2.70;;;8.90;99.90;;;;;;5060444;28;20290;-60
2021/11/08 04:20:17;;;;;;;9.03;2.30;;;8.90;99.90;;;;;;5063713;28;20203;-61
2021/11/08 04:22:44;;;;;;;7.00;3.00;;;8.90;99.90;;;;;;5060203;28;20197;-60
2021/11/08 04:25:11;;;;;;;5.67;2.43;;;8.90;99.90;;;;;;5063802;28;20222;-60
2021/11/08 04:27:39;;;;;;;10.80;2.50;;;8.90;99.90;;;;;;5059834;28;20240;-60
2021/11/08 04:30:07;;;;;;;4.53;1.97;;;8.90;99.90;;;;;;5063974;28;20215;-60
2021/11/08 04:32:47;;;;;;;6.73;1.90;;;8.80;99.90;;;;;;5044609;28;20218;-60
2021/11/08 04:35:18;;;;;;;6.37;2.17;;;8.80;99.90;;;;;;5063502;28;20219;-61
2021/11/08 04:38:08;;;;;;;8.47;2.40;;;8.80;99.90;;;;;;5060370;28;20915;-61
2021/11/08 04:40:40;;;;;;;8.60;2.67;;;8.80;99.90;;;;;;5053812;28;20880;-60
2021/11/08 04:43:11;;;;;;;9.70;3.00;;;8.80;99.90;;;;;;5060942;28;20256;-61
2021/11/08 04:48:51;;;;;;;7.77;2.90;;;8.80;99.90;;;;;;5044006;28;20210;-60
2021/11/08 04:51:23;;;;;;;9.10;2.67;;;8.80;99.90;;;;;;5062591;28;20207;-60
2021/11/08 04:53:56;;;;;;;11.50;2.60;;;8.70;99.90;;;;;;5060839;28;20199;-60
2021/11/08 04:56:49;;;;;;;10.90;3.63;;;8.70;99.90;;;;;;5061962;28;20242;-60
2021/11/08 05:21:32;;;;;;;10.50;3.30;;;8.50;99.90;;;;;;5060873;28;20337;-60
2021/11/08 05:32:09;;;;;;;12.20;3.53;;;8.50;99.90;;;;;;5056688;28;20217;-60
2021/11/08 05:34:36;;;;;;;12.23;3.73;;;8.50;99.90;;;;;;5044866;28;20222;-60
2021/11/08 05:37:08;;;;;;;8.50;3.53;;;8.50;99.90;;;;;;5061683;28;20207;-60
2021/11/08 05:39:35;;;;;;;13.77;2.97;;;8.50;99.90;;;;;;5058732;28;20194;-60
2021/11/08 05:42:02;;;;;;;8.50;2.80;;;8.50;99.90;;;;;;5062960;28;20750;-60
2021/11/08 05:44:29;;;;;;;15.33;3.37;;;8.40;99.90;;;;;;5057831;28;20808;-60
2021/11/08 05:46:56;;;;;;;10.40;2.90;;;8.40;99.90;;;;;;5062144;28;20716;-60
2021/11/08 05:49:23;;;;;;;10.60;3.43;;;8.40;99.90;;;;;;5043726;28;20722;-60
2021/11/08 05:51:49;;;;;;;14.13;3.23;;;8.40;99.90;;;;;;5059282;28;20203;-61
2021/11/08 05:54:21;;;;;;;8.93;3.10;;;8.40;99.90;;;;;;5055718;28;20202;-60
2021/11/08 05:57:02;;;;;;;14.33;3.50;;;8.50;99.90;;;;;;5061656;28;20219;-61
2021/11/08 05:59:46;;;;;;;11.90;3.00;;;8.40;99.90;;;;;;5062748;28;20198;-60
2021/11/08 06:49:20;;;;;;;12.90;2.27;;;8.20;99.90;;;;;;5045453;28;20222;-55
2021/11/08 06:51:50;;;;;;;12.73;2.17;;;8.20;99.90;;;;;;5063712;28;20731;-53
2021/11/08 06:54:17;;;;;;;9.20;2.00;;;8.20;99.90;;;;;;5050354;28;20222;-54
2021/11/08 06:56:49;;;;;;;10.40;1.90;;;8.20;99.90;;;;;;5057217;28;20214;-53
2021/11/08 06:59:19;;;;;;;16.33;2.63;;;8.20;99.90;;;;;;5048839;28;20827;-53
2021/11/08 07:01:48;;;;;;;15.17;2.20;;;8.20;99.90;;;;;;5049550;28;20222;-55
2021/11/08 07:04:15;;;;;;;15.37;2.30;;;8.20;99.90;;;;;;5054585;28;21074;-48
2021/11/08 07:06:42;;;;;;;15.27;2.73;;;8.20;99.90;;;;;;5061355;28;20202;-53
2021/11/08 07:09:08;;;;;;;16.03;2.83;;;8.10;99.90;;;;;;5042103;28;20234;-54
2021/11/08 07:11:35;;;;;;;11.07;2.60;;;8.10;99.90;;;;;;5059088;28;21265;-55
2021/11/08 07:14:02;;;;;;;16.80;2.70;;;8.10;99.90;;;;;;5053825;28;20310;-54
2021/11/08 07:16:30;;;;;;;9.47;1.93;;;8.20;99.90;;;;;;5054622;28;20222;-54
2021/11/08 07:18:57;;;;;;;9.73;2.43;;;8.10;99.90;;;;;;5049363;28;20194;-56
2021/11/08 07:21:23;;;;;;;13.83;2.43;;;8.10;99.90;;;;;;5060402;28;20281;-55
2021/11/08 07:23:50;;;;;;;16.07;2.73;;;8.10;99.90;;;;;;5057594;28;20206;-56
2021/11/08 07:26:17;;;;;;;14.73;1.90;;;8.10;99.90;;;;;;5044673;28;20238;-56
2021/11/08 07:28:43;;;;;;;12.57;2.17;;;8.00;99.90;;;;;;5059323;28;20202;-55
2021/11/08 07:31:10;;;;;;;14.80;2.80;;;8.00;99.90;;;;;;5049382;28;20350;-54
2021/11/08 07:33:38;;;;;;;11.50;2.00;;;8.10;99.90;;;;;;5058701;28;20198;-54
2021/11/08 07:36:06;;;;;;;10.60;2.20;;;8.00;99.90;;;;;;5041332;28;20233;-54
2021/11/08 07:38:33;;;;;;;12.17;2.10;;;8.10;99.90;;;;;;5056036;28;20208;-56
2021/11/08 07:41:00;;;;;;;11.87;2.70;;;8.10;99.90;;;;;;5042052;28;20234;-52
2021/11/08 07:43:26;;;;;;;12.40;3.17;;;8.10;99.90;;;;;;5059542;28;20203;-56
2021/11/08 07:45:53;;;;;;;13.17;2.70;;;8.10;99.90;;;;;;5056245;28;20211;-54
2021/11/08 07:48:20;;;;;;;13.67;1.97;;;8.10;99.90;;;;;;5056589;28;20203;-55
2021/11/08 07:50:49;;;;;;;12.10;2.57;;;8.10;99.90;;;;;;5050785;28;20246;-55
2021/11/08 07:53:17;;;;;;;12.03;2.10;;;8.20;99.90;;;;;;5061000;28;20207;-52
2021/11/08 07:55:43;;;;;;;9.47;1.83;;;8.20;99.90;;;;;;5057030;28;20268;-54
2021/11/08 07:58:10;;;;;;;10.53;2.47;;;8.20;99.90;;;;;;5042208;28;20706;-56
2021/11/08 08:00:40;;;;;;;9.80;2.00;;;8.20;99.90;;;;;;5058063;28;20201;-55
2021/11/08 08:03:07;;;;;;;8.27;1.87;;;8.20;99.90;;;;;;5056359;28;20208;-52
2021/11/08 08:05:34;;;;;;;10.10;2.53;;;8.30;99.90;;;;;;5054566;28;20310;-55
2021/11/08 08:08:03;;;;;;;14.03;3.90;;;8.40;99.90;;;;;;5053677;28;20203;-53
2021/11/08 08:10:30;;;;;;;12.23;3.53;;;8.40;99.90;;;;;;5059923;28;20271;-55
2021/11/08 08:12:57;;;;;;;9.83;2.20;;;8.40;99.90;;;;;;5043004;28;20716;-52
2021/11/08 08:15:25;;;;;;;7.47;2.10;;;8.40;99.90;;;;;;5038651;28;20226;-56
2021/11/08 08:17:51;;;;;;;18.80;3.20;;;8.40;99.90;;;;;;5051008;28;20213;-53
2021/11/08 08:20:21;;;;;;;7.67;2.60;;;8.40;99.90;;;;;;5048715;28;20198;-56
2021/11/08 08:22:48;;;;;;;12.70;2.30;;;8.50;99.90;;;;;;5053147;28;20198;-53
2021/11/08 08:25:16;;;;;;;7.67;2.10;;;8.40;99.90;;;;;;5061633;28;20221;-56
2021/11/08 08:27:43;;;;;;;7.60;1.53;;;8.40;99.90;;;;;;5055799;28;20849;-52
2021/11/08 08:30:11;;;;;;;8.33;2.40;;;8.40;99.90;;;;;;5045709;28;20226;-55
2021/11/08 08:32:38;;;;;;;12.07;2.57;;;8.40;99.90;;;;;;5056979;28;20199;-55
2021/11/08 08:35:05;;;;;;;11.67;3.07;;;8.40;99.90;;;;;;5050749;28;20218;-52
2021/11/08 08:37:32;;;;;;;11.73;2.63;;;8.40;99.90;;;;;;5050174;28;20210;-53
2021/11/08 08:40:00;;;;;;;8.93;3.33;;;8.40;99.90;;;;;;5060929;28;20194;-56
2021/11/08 08:42:28;;;;;;;12.87;3.00;;;8.50;99.90;;;;;;5056264;28;20213;-51
2021/11/08 08:44:56;;;;;;;18.63;3.07;;;8.50;99.90;;;;;;5038977;28;20222;-51
2021/11/08 08:47:24;;;;;;;8.53;2.03;;;8.40;99.90;;;;;;5054721;28;20212;-55
2021/11/08 08:49:51;;;;;;;15.40;3.43;;;8.50;99.90;;;;;;5055147;28;20229;-54
2021/11/08 08:52:19;;;;;;;10.73;2.40;;;8.50;99.90;;;;;;5048683;28;20213;-56
2021/11/08 08:54:46;;;;;;;11.17;2.00;;;8.50;99.90;;;;;;5054894;28;20291;-53
2021/11/08 08:57:12;;;;;;;8.93;2.07;;;8.50;99.90;;;;;;5059770;28;20203;-56
2021/11/08 08:59:42;;;;;;;12.23;2.87;;;8.40;99.90;;;;;;5042241;28;21145;-56
2021/11/08 09:02:09;;;;;;;13.60;2.80;;;8.50;99.90;;;;;;5059023;28;20552;-55
2021/11/08 09:04:37;;;;;;;9.17;1.90;;;8.50;99.90;;;;;;5040811;28;20237;-56
2021/11/08 09:07:04;;;;;;;10.90;2.17;;;8.60;99.90;;;;;;5054801;28;20207;-54
2021/11/08 09:09:31;;;;;;;11.17;2.70;;;8.70;99.90;;;;;;5048119;28;20203;-54
2021/11/08 09:11:57;;;;;;;7.50;2.30;;;8.80;99.90;;;;;;5055366;28;20202;-56
2021/11/08 09:14:27;;;;;;;8.57;2.27;;;8.90;99.90;;;;;;5052385;28;20276;-55
2021/11/08 09:16:55;;;;;;;11.30;2.23;;;8.90;99.90;;;;;;5043580;28;20210;-55
2021/11/08 09:19:22;;;;;;;9.30;1.80;;;8.90;99.90;;;;;;5044839;28;20572;-55
2021/11/08 09:21:49;;;;;;;5.63;2.00;;;8.90;99.90;;;;;;5053415;28;20202;-53
2021/11/08 09:24:16;;;;;;;8.37;1.90;;;8.90;99.90;;;;;;5051173;28;21319;-53
2021/11/08 09:26:43;;;;;;;15.07;2.03;;;8.90;99.90;;;;;;5059117;28;20599;-55
2021/11/08 09:29:10;;;;;;;12.30;2.60;;;8.90;99.90;;;;;;5056982;28;20190;-52
2021/11/08 09:31:37;;;;;;;9.60;1.87;;;8.90;99.90;;;;;;5048024;28;20206;-55
2021/11/08 09:34:08;;;;;;;10.73;2.43;;;9.00;99.90;;;;;;5051391;28;20205;-52
2021/11/08 09:36:36;;;;;;;6.10;1.40;;;9.00;99.90;;;;;;5061074;28;20221;-51
2021/11/08 09:39:09;;;;;;;10.10;2.60;;;9.00;99.90;;;;;;5051688;28;20209;-55
2021/11/08 09:41:38;;;;;;;4.50;1.47;;;9.10;99.90;;;;;;5059123;28;20211;-55
2021/11/08 09:44:07;;;;;;;4.10;1.60;;;9.20;99.90;;;;;;5053820;28;20227;-50
2021/11/08 09:46:35;;;;;;;8.23;1.83;;;9.20;99.90;;;;;;5063226;28;20219;-55
2021/11/08 09:49:05;;;;;;;5.20;1.70;;;9.20;99.90;;;;;;5047180;28;20283;-50
2021/11/08 09:51:37;;;;;;;9.77;4.00;;;9.20;99.90;;;;;;5061107;28;20226;-51
2021/11/08 09:54:05;;;;;;;9.67;2.43;;;9.20;99.90;;;;;;5047481;28;20222;-49
2021/11/08 09:56:32;;;;;;;5.80;1.70;;;9.20;99.90;;;;;;5050963;28;20309;-56
2021/11/08 09:59:01;;;;;;;7.47;1.90;;;9.20;99.90;;;;;;5060643;28;20304;-53
2021/11/08 10:01:30;;;;;;;7.00;2.50;;;9.20;99.90;;;;;;5065143;28;20895;-55
2021/11/08 10:03:57;;;;;;;7.60;2.40;;;9.20;99.90;;;;;;5053852;28;20215;-54
2021/11/08 10:06:28;;;;;;;7.53;2.53;;;9.20;99.90;;;;;;5066385;28;20222;-52
2021/11/08 10:08:55;;;;;;;10.33;2.73;;;9.20;99.90;;;;;;5063485;28;20281;-49
2021/11/08 10:11:22;;;;;;;9.00;2.77;;;9.30;99.90;;;;;;5058719;28;20218;-55
2021/11/08 10:13:49;;;;;;;16.50;3.07;;;9.30;99.90;;;;;;5066990;28;20203;-52
2021/11/08 10:16:19;;;;;;;9.87;2.40;;;9.30;99.90;;;;;;5060011;28;20233;-53
2021/11/08 10:18:48;;;;;;;12.70;3.40;;;9.30;99.90;;;;;;5052726;28;20218;-54
2021/11/08 10:21:17;;;;;;;8.07;2.20;;;9.30;99.90;;;;;;5062479;28;20186;-53
2021/11/08 10:23:48;;;;;;;16.53;4.30;;;9.20;99.90;;;;;;5058234;28;20213;-55
2021/11/08 10:26:17;;;;;;;14.50;3.03;;;9.20;99.90;;;;;;5064389;28;20922;-53
2021/11/08 10:28:50;;;;;;;13.97;2.27;;;9.10;99.90;;;;;;5061488;28;20210;-54
2021/11/08 10:31:17;;;;;;;38.57;9.57;;;9.10;99.90;;;;;;5055376;28;20226;-51
2021/11/08 10:33:44;;;;;;;7.43;1.83;;;9.10;99.90;;;;;;5062575;28;20238;-52
2021/11/08 10:36:13;;;;;;;37.27;8.07;;;9.10;99.90;;;;;;5058973;28;20222;-55
2021/11/08 10:38:42;;;;;;;30.40;6.53;;;9.10;99.90;;;;;;5066033;28;20190;-54
2021/11/08 10:41:13;;;;;;;17.90;5.20;;;9.20;99.90;;;;;;5061252;28;20190;-53
2021/11/08 10:43:42;;;;;;;34.73;7.60;;;9.20;99.90;;;;;;5055398;28;20198;-55
2021/11/08 10:46:12;;;;;;;18.27;5.37;;;9.20;99.90;;;;;;5062044;28;20211;-51
2021/11/08 10:48:42;;;;;;;22.57;6.07;;;9.20;99.90;;;;;;5063140;28;20237;-55
2021/11/08 10:51:12;;;;;;;8.50;4.03;;;9.20;99.90;;;;;;5047994;28;21038;-53
2021/11/08 10:53:45;;;;;;;15.73;3.40;;;9.20;99.90;;;;;;5068850;28;20197;-55
2021/11/08 10:56:14;;;;;;;21.87;5.33;;;9.20;99.90;;;;;;5060735;28;20210;-54
2021/11/08 10:58:44;;;;;;;13.47;3.60;;;9.10;99.90;;;;;;5059777;28;20191;-57
2021/11/08 11:01:24;;;;;;;11.20;3.73;;;9.20;99.90;;;;;;5056871;28;20194;-52
2021/11/08 11:03:52;;;;;;;25.80;4.60;;;9.20;99.90;;;;;;5062934;28;20199;-55
2021/11/08 11:06:19;;;;;;;12.90;3.63;;;9.20;99.90;;;;;;5043049;28;20230;-55
2021/11/08 11:08:51;;;;;;;23.33;6.50;;;9.30;99.90;;;;;;5058135;28;20199;-55
2021/11/08 11:11:23;;;;;;;16.20;4.07;;;9.30;99.90;;;;;;5058439;28;20301;-55
2021/11/08 11:13:52;;;;;;;11.17;3.90;;;9.30;99.90;;;;;;5050652;28;20202;-55
2021/11/08 11:16:32;;;;;;;16.93;2.80;;;9.30;99.90;;;;;;5063796;28;20222;-54
2021/11/08 11:19:02;;;;;;;15.60;3.87;;;9.40;99.90;;;;;;5051868;28;20799;-53
2021/11/08 11:21:29;;;;;;;17.03;4.13;;;9.30;99.90;;;;;;5050461;28;20207;-50
2021/11/08 11:24:01;;;;;;;15.03;3.50;;;9.30;99.90;;;;;;5060537;28;20202;-54
2021/11/08 11:26:35;;;;;;;13.80;4.60;;;9.30;99.90;;;;;;5060182;28;20313;-54
2021/11/08 11:29:03;;;;;;;18.80;5.17;;;9.40;99.90;;;;;;5056609;28;20210;-54
2021/11/08 11:31:38;;;;;;;9.60;3.53;;;9.40;99.90;;;;;;5064315;28;20219;-56
2021/11/08 11:34:15;;;;;;;18.03;4.10;;;9.40;99.90;;;;;;5058933;28;20190;-54
2021/11/08 11:36:42;;;;;;;14.23;4.43;;;9.40;99.90;;;;;;5058687;28;20198;-55
2021/11/08 11:39:16;;;;;;;9.10;3.00;;;9.30;99.90;;;;;;5053860;28;20195;-51
2021/11/08 11:41:46;;;;;;;8.67;2.90;;;9.40;99.90;;;;;;5058387;28;20219;-54
2021/11/08 11:44:16;;;;;;;14.37;4.23;;;9.30;99.90;;;;;;5057457;28;20285;-49
2021/11/08 11:46:46;;;;;;;12.90;3.77;;;9.30;99.90;;;;;;5062407;28;20199;-55
2021/11/08 11:49:13;;;;;;;12.53;3.70;;;9.30;99.90;;;;;;5051960;28;20206;-54
2021/11/08 11:51:42;;;;;;;14.67;4.57;;;9.30;99.90;;;;;;5051953;28;20294;-55
2021/11/08 11:54:11;;;;;;;14.57;5.60;;;9.30;99.90;;;;;;5051818;28;20223;-54
2021/11/08 11:56:41;;;;;;;8.30;3.77;;;9.30;99.90;;;;;;5057353;28;20225;-54
2021/11/08 11:59:11;;;;;;;19.80;5.73;;;9.30;99.90;;;;;;5044605;28;20213;-54
2021/11/08 12:01:39;;;;;;;9.70;4.03;;;9.40;99.90;;;;;;5063019;28;20294;-55
2021/11/08 12:04:07;;;;;;;13.77;4.37;;;9.40;99.90;;;;;;5061205;28;20209;-54
2021/11/08 12:06:37;;;;;;;30.67;7.93;;;9.40;99.90;;;;;;5065922;28;20293;-54
2021/11/08 12:09:09;;;;;;;14.33;3.90;;;9.40;99.90;;;;;;5039479;28;20924;-53
2021/11/08 12:11:39;;;;;;;15.27;4.40;;;9.30;99.90;;;;;;5055892;28;20313;-53
2021/11/08 12:14:15;;;;;;;13.63;4.60;;;9.40;99.90;;;;;;5053245;28;20198;-55
2021/11/08 12:16:54;;;;;;;8.87;3.73;;;9.30;99.90;;;;;;5055584;28;20198;-51
2021/11/08 12:19:24;;;;;;;12.73;3.43;;;9.40;99.90;;;;;;5055770;28;20214;-54
2021/11/08 12:21:51;;;;;;;9.60;3.70;;;9.30;99.90;;;;;;5055124;28;20206;-52
2021/11/08 12:24:21;;;;;;;25.43;6.50;;;9.40;99.90;;;;;;5043583;28;20218;-56
2021/11/08 12:26:51;;;;;;;18.20;6.13;;;9.40;99.90;;;;;;5053035;28;20198;-54
2021/11/08 12:29:21;;;;;;;11.30;4.40;;;9.40;99.90;;;;;;5051293;28;20209;-53
2021/11/08 12:31:59;;;;;;;13.53;4.97;;;9.40;99.90;;;;;;5056122;28;20998;-55
2021/11/08 12:34:26;;;;;;;12.53;4.40;;;9.50;99.90;;;;;;5051087;28;20217;-54
2021/11/08 12:36:58;;;;;;;14.13;4.10;;;9.50;99.90;;;;;;5052791;28;20211;-56
2021/11/08 12:39:26;;;;;;;11.77;3.73;;;9.50;99.90;;;;;;5034120;28;20210;-54
2021/11/08 12:42:00;;;;;;;10.43;3.00;;;9.50;99.90;;;;;;5048900;28;20702;-54
2021/11/08 12:44:38;;;;;;;10.83;4.20;;;9.40;99.90;;;;;;5046468;28;20202;-54
2021/11/08 12:47:06;;;;;;;13.57;4.30;;;9.50;99.90;;;;;;5052287;28;20199;-56
2021/11/08 12:49:37;;;;;;;9.17;3.00;;;9.50;99.90;;;;;;5061154;28;20663;-54
2021/11/08 12:52:10;;;;;;;5.37;2.87;;;9.50;99.90;;;;;;5050469;28;20215;-55
2021/11/08 12:54:47;;;;;;;5.63;3.13;;;9.50;99.90;;;;;;5046106;28;20309;-54
2021/11/08 12:57:14;;;;;;;8.17;2.97;;;9.50;99.90;;;;;;5052829;28;20206;-53
2021/11/08 12:59:45;;;;;;;6.80;2.50;;;9.50;99.90;;;;;;5060534;28;20208;-51
2021/11/08 13:02:23;;;;;;;5.50;2.07;;;9.50;99.90;;;;;;5048365;28;20191;-52
2021/11/08 13:04:51;;;;;;;4.57;2.10;;;9.50;99.90;;;;;;5059255;28;20226;-56
2021/11/08 13:07:20;;;;;;;5.47;1.70;;;9.50;99.90;;;;;;5051462;28;20194;-55
2021/11/08 13:09:49;;;;;;;2.80;1.73;;;9.50;99.90;;;;;;5051152;28;20201;-54
2021/11/08 13:12:19;;;;;;;4.50;1.53;;;9.50;99.90;;;;;;5041176;28;20233;-55
2021/11/08 13:14:50;;;;;;;23.77;5.40;;;9.50;99.90;;;;;;5059789;28;20587;-51
2021/11/08 13:17:19;;;;;;;7.63;2.13;;;9.50;99.90;;;;;;5048352;28;20210;-55
2021/11/08 13:19:49;;;;;;;4.03;2.27;;;9.60;99.90;;;;;;5061229;28;20207;-56
2021/11/08 13:22:21;;;;;;;7.40;2.07;;;9.60;99.90;;;;;;5051948;28;20285;-55
2021/11/08 13:25:01;;;;;;;10.60;2.93;;;9.60;99.90;;;;;;5057493;28;20237;-56
2021/11/08 13:27:27;;;;;;;13.20;2.80;;;9.60;99.90;;;;;;5052251;28;20206;-54
2021/11/08 13:29:57;;;;;;;3.63;1.73;;;9.60;99.90;;;;;;5062983;28;20217;-53
2021/11/08 13:32:25;;;;;;;6.57;2.73;;;9.60;99.90;;;;;;5050611;28;20223;-54
2021/11/08 13:34:52;;;;;;;7.70;2.00;;;9.60;99.90;;;;;;5058174;28;20219;-55
2021/11/08 13:37:21;;;;;;;2.73;1.83;;;9.60;99.90;;;;;;5054100;28;20955;-55
2021/11/08 13:39:50;;;;;;;5.03;1.37;;;9.70;99.90;;;;;;5061126;28;20210;-55
2021/11/08 13:42:22;;;;;;;3.80;1.80;;;9.70;99.90;;;;;;5042444;28;20336;-55
2021/11/08 13:44:52;;;;;;;20.90;4.30;;;9.70;99.90;;;;;;5053897;28;20223;-56
2021/11/08 13:47:20;;;;;;;2.43;1.63;;;9.70;99.90;;;;;;5047716;28;20717;-50
2021/11/08 13:49:46;;;;;;;4.17;1.67;;;9.70;99.90;;;;;;5053191;28;20216;-55
2021/11/08 13:52:14;;;;;;;3.83;1.30;;;9.70;99.90;;;;;;5050511;28;20211;-53
2021/11/08 13:54:40;;;;;;;3.97;1.50;;;9.70;99.90;;;;;;5048703;28;20230;-54
2021/11/08 13:57:10;;;;;;;4.10;1.50;;;9.70;99.90;;;;;;5035960;28;20199;-55
2021/11/08 13:59:39;;;;;;;3.03;1.27;;;9.80;99.90;;;;;;5050151;28;20211;-52
2021/11/08 14:02:07;;;;;;;2.17;1.60;;;9.80;99.90;;;;;;5047817;28;20879;-53
2021/11/08 14:04:37;;;;;;;2.53;1.40;;;9.90;99.90;;;;;;5050031;28;20199;-52
2021/11/08 14:07:05;;;;;;;1.60;1.40;;;9.90;99.90;;;;;;5054391;28;20199;-52
2021/11/08 14:09:33;;;;;;;4.10;1.63;;;9.90;99.90;;;;;;5052305;28;20577;-56
2021/11/08 14:12:01;;;;;;;1.77;1.33;;;10.00;99.90;;;;;;5040365;28;20227;-52
2021/11/08 14:14:30;;;;;;;4.23;1.80;;;10.00;99.90;;;;;;5058022;28;20286;-56
2021/11/08 14:17:09;;;;;;;3.83;1.57;;;10.10;99.90;;;;;;5051988;28;20363;-54
2021/11/08 14:19:37;;;;;;;3.30;1.70;;;10.00;99.90;;;;;;5049169;28;20213;-55
2021/11/08 14:22:04;;;;;;;3.60;1.60;;;10.10;99.90;;;;;;5046411;28;20203;-55